createdAt,value
2019-02-19T00:01:04.787Z,15.73
2019-02-19T00:03:32.857Z,15.90
2019-02-19T00:06:00.907Z,15.97
2019-02-19T00:08:28.899Z,15.77
2019-02-19T00:10:56.833Z,16.83
2019-02-19T00:13:24.789Z,16.73
2019-02-19T00:15:52.691Z,15.70
2019-02-19T00:18:20.646Z,17.33
2019-02-19T00:20:48.640Z,17.10
2019-02-19T00:23:16.763Z,17.93
2019-02-19T00:25:44.763Z,16.77
2019-02-19T00:28:12.714Z,16.67
2019-02-19T00:30:40.766Z,17.13
2019-02-19T00:33:08.812Z,17.73
2019-02-19T00:35:36.759Z,16.93
2019-02-19T00:38:06.348Z,17.13
2019-02-19T00:40:34.473Z,18.63
2019-02-19T00:43:02.445Z,17.90
2019-02-19T00:45:30.443Z,17.07
2019-02-19T00:47:58.447Z,18.40
2019-02-19T00:50:26.381Z,17.53
2019-02-19T00:52:54.392Z,17.80
2019-02-19T00:55:22.319Z,17.00
2019-02-19T00:57:50.254Z,17.43
2019-02-19T01:00:18.311Z,18.13
2019-02-19T01:02:46.397Z,18.33
2019-02-19T01:05:14.608Z,17.03
2019-02-19T01:07:42.543Z,17.03
2019-02-19T01:10:10.559Z,17.17
2019-02-19T01:12:38.556Z,16.60
2019-02-19T01:15:07.366Z,17.57
2019-02-19T01:17:35.403Z,18.37
2019-02-19T01:20:03.340Z,17.70
2019-02-19T01:22:31.313Z,16.77
2019-02-19T01:24:59.311Z,17.20
2019-02-19T01:27:27.275Z,17.13
2019-02-19T01:29:55.221Z,16.77
2019-02-19T01:32:23.215Z,16.63
2019-02-19T01:34:51.164Z,16.20
2019-02-19T01:37:19.158Z,16.97
2019-02-19T01:39:47.886Z,17.57
2019-02-19T01:42:15.916Z,16.33
2019-02-19T01:44:43.947Z,16.50
2019-02-19T01:47:12.352Z,16.93
2019-02-19T01:49:40.387Z,16.90
2019-02-19T01:52:08.366Z,17.17
2019-02-19T01:54:36.367Z,16.97
2019-02-19T01:57:04.306Z,16.20
2019-02-19T01:59:32.231Z,16.03
2019-02-19T02:02:00.266Z,16.40
2019-02-19T02:04:28.243Z,16.67
2019-02-19T02:06:56.164Z,16.30
2019-02-19T02:09:24.116Z,15.83
2019-02-19T02:11:52.107Z,16.37
2019-02-19T02:14:20.123Z,15.97
2019-02-19T02:16:48.054Z,15.50
2019-02-19T02:19:16.543Z,15.20
2019-02-19T02:21:44.543Z,15.57
2019-02-19T02:24:12.540Z,14.73
2019-02-19T02:26:40.510Z,16.13
2019-02-19T02:29:08.514Z,15.80
2019-02-19T02:31:36.499Z,15.63
2019-02-19T02:34:04.559Z,15.70
2019-02-19T02:36:32.490Z,15.80
2019-02-19T02:39:00.465Z,15.83
2019-02-19T02:41:28.494Z,17.27
2019-02-19T02:43:56.495Z,16.80
2019-02-19T02:46:24.501Z,15.97
2019-02-19T02:48:52.491Z,16.00
2019-02-19T02:51:20.507Z,16.20
2019-02-19T02:53:48.576Z,14.73
2019-02-19T02:56:16.546Z,16.00
2019-02-19T02:58:44.556Z,15.37
2019-02-19T03:01:12.588Z,16.13
2019-02-19T03:03:40.517Z,17.20
2019-02-19T03:06:45.461Z,17.23
2019-02-19T03:09:13.348Z,17.17
2019-02-19T03:11:41.285Z,16.07
2019-02-19T03:14:09.240Z,17.43
2019-02-19T03:16:37.224Z,18.23
2019-02-19T03:19:05.159Z,17.63
2019-02-19T03:21:33.097Z,17.87
2019-02-19T03:24:01.138Z,18.37
2019-02-19T03:26:29.065Z,18.67
2019-02-19T03:28:57.135Z,18.17
2019-02-19T03:31:25.114Z,17.83
2019-02-19T03:33:53.052Z,17.70
2019-02-19T03:36:20.983Z,19.10
2019-02-19T03:38:49.012Z,19.17
2019-02-19T03:41:17.059Z,18.30
2019-02-19T03:43:44.983Z,18.93
2019-02-19T03:46:13.007Z,18.13
2019-02-19T03:48:40.987Z,20.43
2019-02-19T03:51:08.933Z,20.23
2019-02-19T03:53:36.940Z,19.70
2019-02-19T03:56:04.930Z,21.00
2019-02-19T03:58:32.940Z,19.53
2019-02-19T04:01:00.970Z,20.00
2019-02-19T04:03:29.277Z,19.13
2019-02-19T04:05:57.293Z,19.50
2019-02-19T04:08:25.309Z,20.90
2019-02-19T04:10:53.344Z,21.90
2019-02-19T04:13:21.255Z,19.77
2019-02-19T04:15:49.637Z,21.40
2019-02-19T04:18:17.678Z,20.67
2019-02-19T04:20:45.703Z,20.17
2019-02-19T04:23:13.617Z,21.93
2019-02-19T04:25:41.545Z,21.90
2019-02-19T04:28:09.540Z,22.53
2019-02-19T04:30:37.541Z,21.13
2019-02-19T04:33:05.467Z,22.43
2019-02-19T04:35:33.380Z,23.30
2019-02-19T04:38:01.357Z,24.30
2019-02-19T04:40:29.328Z,22.60
2019-02-19T04:42:57.277Z,23.07
2019-02-19T04:45:25.259Z,23.63
2019-02-19T04:47:53.163Z,23.20
2019-02-19T04:50:21.063Z,23.80
2019-02-19T04:52:48.979Z,23.17
2019-02-19T04:55:16.995Z,23.57
2019-02-19T04:57:44.982Z,23.90
2019-02-19T05:00:12.980Z,24.60
2019-02-19T05:02:40.987Z,24.37
2019-02-19T05:05:09.004Z,25.37
2019-02-19T05:07:37.004Z,24.37
2019-02-19T05:10:05.156Z,23.80
2019-02-19T05:12:33.138Z,25.07
2019-02-19T05:15:01.073Z,24.47
2019-02-19T05:17:29.059Z,22.93
2019-02-19T05:19:57.105Z,25.93
2019-02-19T05:22:25.057Z,25.40
2019-02-19T05:24:53.091Z,24.60
2019-02-19T05:27:21.108Z,24.73
2019-02-19T05:29:49.108Z,24.17
2019-02-19T05:32:17.162Z,23.40
2019-02-19T05:34:45.107Z,23.03
2019-02-19T05:37:13.152Z,21.97
2019-02-19T05:39:41.080Z,23.43
2019-02-19T05:42:09.056Z,23.57
2019-02-19T05:44:37.047Z,23.43
2019-02-19T05:47:04.983Z,22.50
2019-02-19T05:49:32.911Z,21.80
2019-02-19T05:52:00.830Z,22.83
2019-02-19T05:54:28.811Z,22.93
2019-02-19T05:56:56.743Z,23.53
2019-02-19T05:59:24.695Z,24.40
2019-02-19T06:01:52.740Z,24.73
2019-02-19T06:04:20.760Z,25.63
2019-02-19T06:06:48.714Z,25.80
2019-02-19T06:09:16.731Z,25.40
2019-02-19T06:11:44.716Z,27.40
2019-02-19T06:14:12.666Z,29.40
2019-02-19T06:16:40.671Z,28.57
2019-02-19T06:19:08.709Z,29.67
2019-02-19T06:21:36.641Z,30.13
2019-02-19T06:24:04.987Z,29.00
2019-02-19T06:26:32.932Z,30.47
2019-02-19T06:29:00.900Z,31.20
2019-02-19T06:31:28.930Z,32.70
2019-02-19T06:33:56.867Z,32.77
2019-02-19T06:36:24.800Z,30.97
2019-02-19T06:38:52.841Z,31.90
2019-02-19T06:41:20.842Z,31.87
2019-02-19T06:43:48.847Z,33.07
2019-02-19T06:46:16.795Z,32.53
2019-02-19T06:48:44.820Z,30.87
2019-02-19T06:51:12.855Z,30.60
2019-02-19T06:53:40.865Z,32.30
2019-02-19T06:56:08.872Z,33.57
2019-02-19T06:58:36.873Z,32.03
2019-02-19T07:01:04.884Z,30.40
2019-02-19T07:03:39.184Z,29.73
2019-02-19T07:06:07.195Z,31.67
2019-02-19T07:08:35.220Z,31.70
2019-02-19T07:11:03.168Z,33.13
2019-02-19T07:13:31.091Z,31.97
2019-02-19T07:15:58.988Z,30.40
2019-02-19T07:18:27.064Z,28.63
2019-02-19T07:20:55.048Z,29.50
2019-02-19T07:23:22.978Z,29.27
2019-02-19T07:25:50.955Z,28.57
2019-02-19T07:28:18.936Z,29.47
2019-02-19T07:30:46.975Z,29.53
2019-02-19T07:33:14.933Z,29.30
2019-02-19T07:35:42.982Z,30.23
2019-02-19T07:38:10.959Z,30.47
2019-02-19T07:40:38.899Z,30.00
2019-02-19T07:43:06.940Z,30.03
2019-02-19T07:45:34.943Z,30.30
2019-02-19T07:48:02.904Z,29.73
2019-02-19T07:50:30.819Z,31.23
2019-02-19T07:52:58.831Z,30.17
2019-02-19T07:55:26.858Z,31.47
2019-02-19T07:57:54.835Z,30.07
2019-02-19T08:00:22.771Z,30.97
2019-02-19T08:02:50.713Z,28.80
2019-02-19T08:05:19.822Z,30.97
2019-02-19T08:07:47.844Z,28.93
2019-02-19T08:10:15.812Z,27.83
2019-02-19T08:12:43.739Z,26.40
2019-02-19T08:15:11.695Z,26.47
2019-02-19T08:17:39.665Z,24.57
2019-02-19T08:20:15.360Z,25.50
2019-02-19T08:22:37.289Z,26.37
2019-02-19T08:25:05.332Z,25.43
2019-02-19T08:27:33.333Z,26.43
2019-02-19T08:30:01.340Z,24.73
2019-02-19T08:32:29.315Z,23.33
2019-02-19T08:34:57.403Z,24.10
2019-02-19T08:37:25.368Z,22.17
2019-02-19T08:39:53.382Z,22.50
2019-02-19T08:42:21.423Z,22.53
2019-02-19T08:44:49.324Z,22.63
2019-02-19T08:47:17.353Z,21.43
2019-02-19T08:49:45.327Z,20.10
2019-02-19T08:52:13.257Z,19.17
2019-02-19T08:54:41.207Z,19.77
2019-02-19T08:57:09.205Z,18.73
2019-02-19T08:59:37.212Z,19.40
2019-02-19T09:02:05.260Z,18.70
2019-02-19T09:04:33.318Z,17.73
2019-02-19T09:07:01.381Z,16.83
2019-02-19T09:09:29.413Z,16.77
2019-02-19T09:11:57.420Z,16.83
2019-02-19T09:14:25.395Z,16.33
2019-02-19T09:16:53.356Z,15.93
2019-02-19T09:19:21.290Z,16.20
2019-02-19T09:21:51.457Z,13.03
2019-02-19T09:24:19.546Z,14.17
2019-02-19T09:26:47.595Z,14.20
2019-02-19T09:29:15.628Z,13.40
2019-02-19T09:31:43.637Z,12.93
2019-02-19T09:34:11.575Z,13.30
2019-02-19T09:36:39.508Z,12.50
2019-02-19T09:39:07.407Z,13.50
2019-02-19T09:41:35.407Z,13.17
2019-02-19T09:44:03.466Z,12.40
2019-02-19T09:46:31.510Z,12.40
2019-02-19T09:48:59.592Z,11.93
2019-02-19T09:51:27.566Z,12.70
2019-02-19T09:53:55.590Z,12.57
2019-02-19T09:56:23.527Z,10.73
2019-02-19T09:58:51.537Z,11.50
2019-02-19T10:01:19.593Z,10.70
2019-02-19T10:03:47.544Z,10.33
2019-02-19T10:06:15.476Z,10.30
2019-02-19T10:08:43.401Z,11.40
2019-02-19T10:11:11.345Z,11.30
2019-02-19T10:13:39.341Z,10.63
2019-02-19T10:16:07.285Z,10.80
2019-02-19T10:18:35.280Z,10.07
2019-02-19T10:21:03.251Z,10.10
2019-02-19T10:23:31.203Z,10.50
2019-02-19T10:25:59.190Z,10.13
2019-02-19T10:28:27.083Z,10.30
2019-02-19T10:30:55.090Z,9.47
2019-02-19T10:33:23.095Z,9.37
2019-02-19T10:35:51.132Z,9.77
2019-02-19T10:38:19.238Z,9.60
2019-02-19T10:40:47.275Z,9.90
2019-02-19T10:43:15.309Z,9.37
2019-02-19T10:45:43.371Z,10.17
2019-02-19T10:48:18.821Z,9.50
2019-02-19T10:50:40.966Z,8.80
2019-02-19T10:53:08.957Z,9.50
2019-02-19T10:55:37.008Z,9.20
2019-02-19T10:58:05.063Z,9.40
2019-02-19T11:00:33.176Z,9.43
2019-02-19T11:03:01.176Z,9.70
2019-02-19T11:05:29.182Z,9.90
2019-02-19T11:07:57.229Z,9.47
2019-02-19T11:10:25.229Z,9.80
2019-02-19T11:12:53.348Z,9.70
2019-02-19T11:15:21.360Z,10.50
2019-02-19T11:17:49.452Z,9.87
2019-02-19T11:20:18.615Z,9.43
2019-02-19T11:22:46.639Z,9.03
2019-02-19T11:25:14.561Z,8.70
2019-02-19T11:27:42.488Z,8.23
2019-02-19T11:30:11.677Z,9.47
2019-02-19T11:32:39.663Z,9.30
2019-02-19T11:35:08.002Z,8.57
2019-02-19T11:37:37.375Z,8.83
2019-02-19T11:40:06.174Z,8.30
2019-02-19T11:42:34.182Z,8.97
2019-02-19T11:45:02.152Z,8.17
2019-02-19T11:47:30.110Z,7.93
2019-02-19T11:49:58.103Z,8.30
2019-02-19T11:52:26.100Z,7.87
2019-02-19T11:54:54.091Z,8.00
2019-02-19T11:57:22.097Z,7.83
2019-02-19T11:59:50.046Z,8.03
2019-02-19T12:02:18.235Z,7.93
2019-02-19T12:04:46.294Z,6.70
2019-02-19T12:07:14.293Z,7.77
2019-02-19T12:09:42.236Z,7.83
2019-02-19T12:12:10.206Z,7.70
2019-02-19T12:14:38.132Z,6.87
2019-02-19T12:17:06.173Z,7.90
2019-02-19T12:19:34.195Z,7.17
2019-02-19T12:22:02.094Z,7.43
2019-02-19T12:24:30.028Z,7.50
2019-02-19T12:26:58.041Z,7.87
2019-02-19T12:29:26.169Z,7.27
2019-02-19T12:31:54.300Z,7.20
2019-02-19T12:34:22.316Z,6.60
2019-02-19T12:36:50.336Z,6.80
2019-02-19T12:39:18.368Z,6.93
2019-02-19T12:41:46.458Z,6.57
2019-02-19T12:44:14.500Z,7.10
2019-02-19T12:46:42.496Z,6.63
2019-02-19T12:49:10.568Z,6.50
2019-02-19T12:51:38.536Z,6.60
2019-02-19T12:54:06.481Z,6.67
2019-02-19T12:56:34.405Z,6.63
2019-02-19T12:59:03.673Z,6.37
2019-02-19T13:01:31.667Z,6.90
2019-02-19T13:03:59.601Z,6.30
2019-02-19T13:06:27.610Z,6.43
2019-02-19T13:08:57.971Z,6.43
2019-02-19T13:11:25.907Z,6.20
2019-02-19T13:13:53.888Z,6.07
2019-02-19T13:16:22.805Z,6.10
2019-02-19T13:18:50.823Z,6.40
2019-02-19T13:21:18.788Z,6.57
2019-02-19T13:23:46.811Z,6.03
2019-02-19T13:26:14.755Z,5.90
2019-02-19T13:28:44.206Z,6.03
2019-02-19T13:31:12.269Z,6.03
2019-02-19T13:33:40.217Z,6.50
2019-02-19T13:36:08.477Z,6.30
2019-02-19T13:38:36.548Z,5.57
2019-02-19T13:41:04.643Z,6.07
2019-02-19T13:43:32.699Z,5.50
2019-02-19T13:46:00.770Z,5.47
2019-02-19T13:48:28.746Z,5.80
2019-02-19T13:50:57.332Z,6.07
2019-02-19T13:53:32.400Z,6.33
2019-02-19T13:56:01.869Z,5.90
2019-02-19T13:58:29.986Z,5.90
2019-02-19T14:00:57.968Z,6.03
2019-02-19T14:03:25.879Z,6.07
2019-02-19T14:05:53.855Z,5.70
2019-02-19T14:08:21.827Z,5.67
2019-02-19T14:10:49.872Z,5.93
2019-02-19T14:13:17.897Z,5.63
2019-02-19T14:16:01.324Z,6.17
2019-02-19T14:18:52.828Z,5.60
2019-02-19T14:21:40.228Z,6.17
2019-02-19T14:24:30.590Z,5.33
2019-02-19T14:27:16.320Z,4.83
2019-02-19T14:30:06.355Z,5.90
2019-02-19T14:32:53.512Z,5.10
2019-02-19T14:35:39.203Z,5.43
2019-02-19T14:38:32.131Z,5.07
2019-02-19T14:41:20.308Z,6.07
2019-02-19T14:44:08.350Z,5.40
2019-02-19T14:47:07.149Z,5.77
2019-02-19T14:50:09.294Z,5.90
2019-02-19T14:53:03.707Z,6.90
2019-02-19T14:55:45.886Z,6.43
2019-02-19T14:58:42.072Z,6.20
2019-02-19T15:01:28.215Z,6.40
2019-02-19T15:04:27.149Z,7.37
2019-02-19T15:07:29.115Z,7.47
2019-02-19T15:10:36.760Z,8.07
2019-02-19T15:13:22.586Z,8.30
2019-02-19T15:16:08.030Z,7.67
2019-02-19T15:18:53.460Z,6.80
2019-02-19T15:21:46.424Z,7.50
2019-02-19T15:24:31.876Z,6.80
2019-02-19T15:27:08.992Z,7.40
2019-02-19T15:29:55.989Z,6.77
2019-02-19T15:32:43.019Z,7.75
2019-02-19T15:35:38.948Z,8.00
2019-02-19T15:38:34.871Z,6.57
2019-02-19T15:41:20.715Z,6.53
2019-02-19T15:44:06.396Z,7.20
2019-02-19T15:46:41.638Z,5.30
2019-02-19T15:49:34.473Z,4.97
2019-02-19T15:52:24.651Z,4.53
2019-02-19T15:55:11.104Z,4.00
2019-02-19T15:58:04.554Z,3.70
2019-02-19T16:00:41.445Z,3.83
2019-02-19T16:03:26.989Z,3.77
2019-02-19T16:06:14.019Z,3.07
2019-02-19T16:09:16.046Z,3.87
2019-02-19T16:11:51.787Z,3.30
2019-02-19T16:14:37.438Z,3.10
2019-02-19T16:17:23.020Z,3.30
2019-02-19T16:19:58.844Z,3.10
2019-02-19T16:22:48.724Z,3.47
2019-02-19T16:25:35.737Z,3.10
2019-02-19T16:28:31.981Z,2.90
2019-02-19T16:31:19.178Z,3.50
2019-02-19T16:34:09.330Z,3.60
2019-02-19T16:37:11.323Z,3.50
2019-02-19T16:39:49.462Z,3.03
2019-02-19T16:42:51.623Z,3.00
2019-02-19T16:45:44.843Z,4.00
2019-02-19T16:48:31.969Z,3.40
2019-02-19T16:51:10.365Z,3.10
2019-02-19T16:53:55.800Z,3.00
2019-02-19T16:56:54.565Z,2.87
2019-02-19T16:59:40.055Z,2.77
2019-02-19T17:02:39.269Z,3.33
2019-02-19T17:05:31.921Z,2.50
2019-02-19T17:08:24.594Z,2.80
2019-02-19T17:11:20.541Z,2.40
2019-02-19T17:14:06.361Z,2.97
2019-02-19T17:16:51.973Z,2.70
2019-02-19T17:19:30.723Z,2.40
2019-02-19T17:22:16.508Z,2.27
2019-02-19T17:24:58.497Z,2.10
2019-02-19T17:27:45.501Z,2.23
2019-02-19T17:30:44.421Z,1.90
2019-02-19T17:33:43.738Z,2.07
2019-02-19T17:36:39.974Z,2.10
2019-02-19T17:39:22.692Z,2.17
2019-02-19T17:42:18.422Z,3.03
2019-02-19T17:45:08.024Z,2.13
2019-02-19T17:48:13.004Z,2.50
2019-02-19T17:51:05.692Z,2.30
2019-02-19T17:53:51.117Z,2.30
2019-02-19T17:56:36.660Z,2.30
2019-02-19T17:59:22.144Z,2.27
2019-02-19T18:01:57.090Z,2.50
2019-02-19T18:04:31.995Z,2.20
2019-02-19T18:07:22.145Z,2.37
2019-02-19T18:09:58.360Z,2.63
2019-02-19T18:12:47.061Z,2.47
2019-02-19T18:15:32.507Z,2.27
2019-02-19T18:18:08.756Z,2.30
2019-02-19T18:20:36.741Z,2.40
2019-02-19T18:23:04.792Z,2.27
2019-02-19T18:25:32.876Z,3.00
2019-02-19T18:28:01.346Z,3.00
2019-02-19T18:30:29.390Z,2.27
2019-02-19T18:32:57.863Z,2.30
2019-02-19T18:35:25.813Z,2.50
2019-02-19T18:37:54.120Z,2.50
2019-02-19T18:40:22.188Z,2.30
2019-02-19T18:42:50.365Z,2.20
2019-02-19T18:45:24.437Z,2.00
2019-02-19T18:47:52.552Z,2.20
2019-02-19T18:50:20.694Z,2.27
2019-02-19T18:52:48.689Z,2.20
2019-02-19T18:55:16.748Z,2.40
2019-02-19T18:57:44.671Z,2.60
2019-02-19T19:00:12.665Z,2.50
2019-02-19T19:02:40.664Z,2.77
2019-02-19T19:05:08.672Z,2.70
2019-02-19T19:07:36.683Z,2.60
2019-02-19T19:10:04.824Z,2.60
2019-02-19T19:12:32.920Z,2.33
2019-02-19T19:15:00.955Z,2.20
2019-02-19T19:17:31.305Z,2.50
2019-02-19T19:19:59.340Z,2.23
2019-02-19T19:22:27.393Z,2.03
2019-02-19T19:24:55.470Z,2.43
2019-02-19T19:27:23.434Z,2.60
2019-02-19T19:29:51.412Z,2.40
2019-02-19T19:32:20.398Z,2.10
2019-02-19T19:34:48.411Z,2.33
2019-02-19T19:37:16.508Z,2.37
2019-02-19T19:39:44.460Z,2.20
2019-02-19T19:42:12.544Z,2.20
2019-02-19T19:44:40.584Z,2.70
2019-02-19T19:47:08.632Z,2.53
2019-02-19T19:49:36.848Z,2.40
2019-02-19T19:52:05.152Z,2.43
2019-02-19T19:54:33.077Z,2.00
2019-02-19T19:57:01.119Z,1.87
2019-02-19T19:59:29.264Z,1.90
2019-02-19T20:02:00.601Z,2.57
2019-02-19T20:04:28.664Z,2.10
2019-02-19T20:06:56.737Z,2.03
2019-02-19T20:09:24.802Z,2.13
2019-02-19T20:11:52.901Z,1.70
2019-02-19T20:14:21.257Z,2.10
2019-02-19T20:16:49.353Z,2.10
2019-02-19T20:19:18.177Z,2.47
2019-02-19T20:21:46.293Z,2.30
2019-02-19T20:24:14.360Z,2.00
2019-02-19T20:26:42.466Z,2.10
2019-02-19T20:29:10.574Z,2.23
2019-02-19T20:31:38.727Z,2.27
2019-02-19T20:34:10.869Z,2.20
2019-02-19T20:36:38.997Z,2.30
2019-02-19T20:39:07.593Z,2.30
2019-02-19T20:41:35.848Z,2.60
2019-02-19T20:44:04.046Z,2.20
2019-02-19T20:46:32.173Z,2.50
2019-02-19T20:49:00.230Z,2.10
2019-02-19T20:51:36.126Z,2.10
2019-02-19T20:53:58.254Z,1.80
2019-02-19T20:56:26.376Z,2.23
2019-02-19T20:58:54.529Z,2.30
2019-02-19T21:01:22.660Z,2.13
2019-02-19T21:03:50.737Z,1.70
2019-02-19T21:06:18.755Z,1.97
2019-02-19T21:08:46.815Z,2.00
2019-02-19T21:11:14.874Z,2.40
2019-02-19T21:13:42.948Z,1.90
2019-02-19T21:16:10.954Z,2.10
2019-02-19T21:18:39.021Z,2.20
2019-02-19T21:21:07.112Z,2.07
2019-02-19T21:23:35.160Z,1.87
2019-02-19T21:26:03.132Z,2.00
2019-02-19T21:28:32.131Z,1.43
2019-02-19T21:31:00.059Z,2.10
2019-02-19T21:33:28.174Z,1.90
2019-02-19T21:35:57.888Z,1.73
2019-02-19T21:38:26.083Z,1.90
2019-02-19T21:40:54.047Z,2.13
2019-02-19T21:43:22.035Z,1.73
2019-02-19T21:45:49.994Z,1.97
2019-02-19T21:48:18.060Z,2.10
2019-02-19T21:50:46.219Z,2.07
2019-02-19T21:53:14.236Z,1.60
2019-02-19T21:55:42.310Z,1.60
2019-02-19T21:58:10.246Z,2.23
2019-02-19T22:00:38.252Z,1.70
2019-02-19T22:03:06.319Z,2.00
2019-02-19T22:05:34.355Z,1.60
2019-02-19T22:08:02.376Z,1.90
2019-02-19T22:10:30.430Z,1.60
2019-02-19T22:12:58.468Z,1.80
2019-02-19T22:15:26.537Z,1.60
2019-02-19T22:17:54.643Z,1.30
2019-02-19T22:20:50.571Z,2.00
2019-02-19T22:23:18.542Z,1.63
2019-02-19T22:25:46.611Z,2.17
2019-02-19T22:28:14.604Z,2.50
2019-02-19T22:30:42.623Z,1.70
2019-02-19T22:33:10.652Z,1.60
2019-02-19T22:35:39.610Z,1.70
2019-02-19T22:38:07.797Z,1.70
2019-02-19T22:40:35.864Z,1.53
2019-02-19T22:43:03.915Z,2.13
2019-02-19T22:45:31.835Z,2.00
2019-02-19T22:48:00.366Z,1.43
2019-02-19T22:50:28.335Z,2.10
2019-02-19T22:52:56.491Z,2.07
2019-02-19T22:55:52.066Z,1.87
2019-02-19T22:58:19.992Z,2.10
2019-02-19T23:01:12.223Z,1.90
2019-02-19T23:03:40.595Z,1.50
2019-02-19T23:06:08.692Z,1.80
2019-02-19T23:08:36.855Z,1.53
2019-02-19T23:11:04.860Z,1.90
2019-02-19T23:13:32.903Z,2.17
2019-02-19T23:16:00.909Z,1.53
2019-02-19T23:18:28.935Z,1.77
2019-02-19T23:20:56.980Z,1.83
2019-02-19T23:23:25.053Z,1.70
2019-02-19T23:25:53.195Z,1.97
2019-02-19T23:28:21.259Z,1.60
2019-02-19T23:30:49.251Z,1.60
2019-02-19T23:33:17.306Z,1.70
2019-02-19T23:35:49.342Z,1.60
2019-02-19T23:38:17.374Z,1.57
2019-02-19T23:40:45.384Z,1.80
2019-02-19T23:43:13.451Z,1.77
2019-02-19T23:45:41.447Z,2.00
2019-02-19T23:48:09.359Z,1.50
2019-02-19T23:50:37.340Z,2.10
2019-02-19T23:53:05.331Z,1.90
2019-02-19T23:55:33.834Z,1.70
2019-02-19T23:58:01.869Z,1.80
